createdAt,value
2017-06-01T00:00:28.980Z,54.67
2017-06-01T00:01:44.851Z,54.77
2017-06-01T00:03:00.293Z,54.67
2017-06-01T00:04:15.681Z,54.77
2017-06-01T00:05:31.492Z,54.67
2017-06-01T00:06:45.877Z,55.15
2017-06-01T00:08:01.316Z,54.67
2017-06-01T00:09:16.665Z,54.96
2017-06-01T00:10:32.101Z,54.77
2017-06-01T00:11:46.482Z,54.86
2017-06-01T00:13:01.919Z,55.34
2017-06-01T00:14:17.060Z,55.24
2017-06-01T00:15:32.467Z,55.24
2017-06-01T00:16:48.085Z,55.63
2017-06-01T00:18:02.243Z,55.44
2017-06-01T00:19:17.700Z,55.34
2017-06-01T00:20:33.410Z,55.34
2017-06-01T00:21:47.673Z,55.31
2017-06-01T00:23:03.101Z,55.15
2017-06-01T00:24:18.667Z,55.22
2017-06-01T00:25:34.179Z,55.22
2017-06-01T00:26:49.902Z,55.6
2017-06-01T00:28:05.643Z,56.08
2017-06-01T00:29:21.058Z,56.17
2017-06-01T00:30:36.596Z,56.27
2017-06-01T00:31:52.334Z,56.08
2017-06-01T00:33:07.777Z,56.08
2017-06-01T00:34:23.233Z,56.75
2017-06-01T00:35:38.703Z,56.75
2017-06-01T00:36:54.689Z,56.46
2017-06-01T00:38:08.855Z,56.84
2017-06-01T00:39:24.316Z,57.32
2017-06-01T00:40:38.460Z,57.32
2017-06-01T00:41:54.169Z,57.1
2017-06-01T00:43:09.646Z,57.1
2017-06-01T00:44:25.395Z,57.29
2017-06-01T00:45:40.844Z,57.1
2017-06-01T00:46:56.210Z,57.2
2017-06-01T00:48:11.684Z,57.68
2017-06-01T00:49:27.120Z,57.77
2017-06-01T00:50:42.807Z,58.54
2017-06-01T00:51:58.470Z,57.97
2017-06-01T00:53:12.271Z,58.15
2017-06-01T00:54:26.426Z,58.15
2017-06-01T00:55:41.901Z,58.83
2017-06-01T00:56:54.726Z,59.2
2017-06-01T00:58:10.443Z,59.37
2017-06-01T00:59:24.453Z,58.89
2017-06-01T01:00:39.921Z,59.18
2017-06-01T01:01:55.391Z,59.56
2017-06-01T01:03:11.070Z,59.56
2017-06-01T01:04:26.298Z,59.37
2017-06-01T01:05:41.720Z,59.27
2017-06-01T01:06:57.162Z,59.75
2017-06-01T01:08:12.909Z,59.94
2017-06-01T01:09:28.442Z,59.84
2017-06-01T01:10:42.580Z,60.13
2017-06-01T01:11:56.748Z,60.13
2017-06-01T01:13:12.437Z,60.42
2017-06-01T01:14:27.980Z,60.13
2017-06-01T01:15:43.387Z,60.8
2017-06-01T01:16:58.861Z,60.61
2017-06-01T01:18:14.586Z,60.9
2017-06-01T01:19:29.003Z,61.38
2017-06-01T01:20:43.118Z,61.19
2017-06-01T01:21:58.567Z,61.66
2017-06-01T01:23:14.188Z,61.66
2017-06-01T01:24:29.737Z,61.57
2017-06-01T01:25:45.353Z,61.85
2017-06-01T01:27:00.963Z,61.66
2017-06-01T01:28:15.359Z,61.82
2017-06-01T01:29:30.798Z,61.72
2017-06-01T01:30:46.186Z,61.92
2017-06-01T01:32:01.663Z,61.92
2017-06-01T01:33:17.344Z,62.3
2017-06-01T01:34:31.536Z,62.4
2017-06-01T01:35:45.584Z,62.3
2017-06-01T01:37:01.048Z,62.68
2017-06-01T01:38:16.667Z,62.3
2017-06-01T01:39:32.061Z,62.49
2017-06-01T01:40:47.642Z,62.59
2017-06-01T01:42:03.029Z,62.4
2017-06-01T01:43:18.643Z,62.21
2017-06-01T01:44:32.821Z,62.01
2017-06-01T01:45:48.386Z,62.01
2017-06-01T01:47:03.846Z,62.49
2017-06-01T01:48:18.061Z,62.3
2017-06-01T01:49:32.188Z,62.21
2017-06-01T01:50:46.312Z,62.4
2017-06-01T01:52:02.003Z,61.92
2017-06-01T01:53:17.728Z,62.21
2017-06-01T01:54:33.151Z,62.4
2017-06-01T01:55:48.595Z,62.01
2017-06-01T01:57:04.066Z,62.21
2017-06-01T01:58:16.891Z,62.4
2017-06-01T01:59:32.563Z,62.3
2017-06-01T02:00:48.039Z,62.4
2017-06-01T02:02:03.491Z,62.4
2017-06-01T02:03:18.930Z,62.4
2017-06-01T02:04:34.627Z,62.49
2017-06-01T02:05:50.075Z,62.4
2017-06-01T02:07:05.650Z,61.82
2017-06-01T02:08:21.071Z,62.21
2017-06-01T02:09:34.349Z,61.92
2017-06-01T02:10:49.785Z,62.04
2017-06-01T02:12:05.241Z,62.21
2017-06-01T02:13:18.087Z,62.4
2017-06-01T02:14:32.444Z,62.3
2017-06-01T02:15:47.626Z,62.49
2017-06-01T02:17:03.218Z,62.49
2017-06-01T02:18:18.670Z,62.3
2017-06-01T02:19:34.279Z,62.4
2017-06-01T02:20:50.009Z,62.21
2017-06-01T02:22:05.330Z,62.4
2017-06-01T02:23:20.893Z,62.4
2017-06-01T02:24:36.578Z,62.21
2017-06-01T02:25:51.988Z,62.59
2017-06-01T02:27:04.768Z,62.49
2017-06-01T02:28:20.283Z,62.3
2017-06-01T02:29:35.924Z,62.3
2017-06-01T02:30:51.381Z,62.68
2017-06-01T02:32:07.045Z,62.87
2017-06-01T02:33:22.699Z,62.78
2017-06-01T02:34:36.827Z,62.78
2017-06-01T02:35:52.449Z,62.49
2017-06-01T02:37:07.911Z,63.26
2017-06-01T02:38:23.397Z,63.07
2017-06-01T02:39:38.918Z,63.07
2017-06-01T02:40:54.353Z,63.16
2017-06-01T02:42:09.756Z,62.97
2017-06-01T02:43:25.181Z,63.16
2017-06-01T02:44:39.331Z,63.45
2017-06-01T02:45:54.766Z,63.07
2017-06-01T02:47:07.426Z,63.07
2017-06-01T02:48:21.386Z,63.07
2017-06-01T02:49:35.786Z,63.07
2017-06-01T02:50:51.304Z,62.78
2017-06-01T02:52:07.091Z,63.26
2017-06-01T02:53:22.552Z,63.16
2017-06-01T02:54:38.136Z,63.16
2017-06-01T02:55:53.606Z,63.26
2017-06-01T02:57:08.990Z,63.8
2017-06-01T02:58:20.191Z,63.7
2017-06-01T02:59:35.678Z,63.42
2017-06-01T03:00:50.257Z,63.51
2017-06-01T03:02:05.734Z,63.7
2017-06-01T03:03:21.167Z,63.8
2017-06-01T03:04:36.620Z,63.89
2017-06-01T03:05:52.273Z,63.7
2017-06-01T03:07:06.085Z,63.7
2017-06-01T03:08:21.605Z,63.7
2017-06-01T03:09:37.042Z,63.6
2017-06-01T03:10:52.639Z,64.18
2017-06-01T03:12:08.068Z,63.99
2017-06-01T03:13:23.465Z,63.99
2017-06-01T03:14:38.877Z,64.28
2017-06-01T03:15:54.536Z,64.18
2017-06-01T03:17:10.290Z,64.37
2017-06-01T03:18:25.625Z,63.99
2017-06-01T03:19:41.133Z,63.8
2017-06-01T03:20:56.748Z,63.99
2017-06-01T03:22:12.195Z,64.65
2017-06-01T03:23:27.765Z,63.99
2017-06-01T03:24:43.172Z,64.56
2017-06-01T03:25:58.806Z,64.56
2017-06-01T03:27:14.337Z,64.28
2017-06-01T03:28:28.545Z,64.56
2017-06-01T03:29:44.145Z,64.47
2017-06-01T03:30:58.473Z,64.47
2017-06-01T03:32:13.880Z,64.56
2017-06-01T03:33:28.028Z,64.37
2017-06-01T03:34:43.504Z,64.28
2017-06-01T03:35:56.512Z,64.94
2017-06-01T03:37:11.924Z,65.04
2017-06-01T03:38:27.660Z,64.65
2017-06-01T03:39:41.819Z,65.33
2017-06-01T03:40:56.204Z,65.33
2017-06-01T03:42:10.236Z,65.61
2017-06-01T03:43:25.596Z,65.23
2017-06-01T03:44:41.118Z,66
2017-06-01T03:45:56.411Z,65.9
2017-06-01T03:47:11.979Z,65.61
2017-06-01T03:48:27.457Z,65.58
2017-06-01T03:49:42.918Z,65.61
2017-06-01T03:50:58.561Z,65.71
2017-06-01T03:52:14.042Z,65.8
2017-06-01T03:53:29.495Z,65.33
2017-06-01T03:54:45.019Z,65.23
2017-06-01T03:56:00.931Z,65.33
2017-06-01T03:57:14.928Z,65.52
2017-06-01T03:58:30.393Z,65.52
2017-06-01T03:59:45.817Z,65.33
2017-06-01T04:00:59.962Z,65.33
2017-06-01T04:02:15.616Z,65.33
2017-06-01T04:03:31.110Z,65.33
2017-06-01T04:04:46.587Z,65.33
2017-06-01T04:06:02.286Z,65.42
2017-06-01T04:07:17.992Z,65.33
2017-06-01T04:08:33.380Z,65.33
2017-06-01T04:09:48.874Z,65.14
2017-06-01T04:11:04.306Z,65.33
2017-06-01T04:12:20.030Z,65.14
2017-06-01T04:13:35.768Z,65.14
2017-06-01T04:14:51.213Z,64.94
2017-06-01T04:16:06.640Z,65.04
2017-06-01T04:17:22.361Z,65.14
2017-06-01T04:18:37.804Z,65.04
2017-06-01T04:19:53.291Z,64.85
2017-06-01T04:21:08.796Z,65.14
2017-06-01T04:22:24.483Z,64.94
2017-06-01T04:23:38.626Z,65.14
2017-06-01T04:24:54.072Z,64.75
2017-06-01T04:26:09.485Z,65.45
2017-06-01T04:27:25.125Z,64.59
2017-06-01T04:28:40.660Z,64.59
2017-06-01T04:29:54.786Z,64.88
2017-06-01T04:31:08.788Z,64.78
2017-06-01T04:32:24.441Z,64.88
2017-06-01T04:33:40.341Z,64.98
2017-06-01T04:34:55.797Z,64.98
2017-06-01T04:36:11.239Z,64.98
2017-06-01T04:37:26.862Z,64.31
2017-06-01T04:38:42.295Z,64.59
2017-06-01T04:39:57.775Z,64.5
2017-06-01T04:41:13.640Z,64.4
2017-06-01T04:42:29.108Z,64.4
2017-06-01T04:43:43.213Z,64.69
2017-06-01T04:44:58.262Z,64.5
2017-06-01T04:46:13.765Z,64.78
2017-06-01T04:47:29.019Z,64.4
2017-06-01T04:48:44.456Z,64.12
2017-06-01T04:49:59.961Z,64.5
2017-06-01T04:51:15.347Z,64.69
2017-06-01T04:52:31.098Z,64.4
2017-06-01T04:53:45.237Z,64.59
2017-06-01T04:55:00.665Z,64.5
2017-06-01T04:56:16.091Z,64.5
2017-06-01T04:57:30.459Z,64.69
2017-06-01T04:58:46.040Z,64.4
2017-06-01T05:00:01.704Z,64.5
2017-06-01T05:01:17.152Z,64.5
2017-06-01T05:02:32.949Z,64.5
2017-06-01T05:03:47.064Z,64.4
2017-06-01T05:05:02.487Z,64.5
2017-06-01T05:06:17.899Z,64.31
2017-06-01T05:07:33.600Z,64.59
2017-06-01T05:08:49.018Z,64.4
2017-06-01T05:10:04.494Z,64.05
2017-06-01T05:11:19.856Z,64.34
2017-06-01T05:12:35.692Z,64.05
2017-06-01T05:13:51.239Z,63.86
2017-06-01T05:15:05.403Z,63.86
2017-06-01T05:16:20.831Z,63.19
2017-06-01T05:17:36.448Z,63.29
2017-06-01T05:18:51.613Z,63.19
2017-06-01T05:20:07.272Z,63.67
2017-06-01T05:21:22.719Z,63.19
2017-06-01T05:22:38.341Z,63.1
2017-06-01T05:23:53.804Z,63.1
2017-06-01T05:25:07.993Z,63.29
2017-06-01T05:26:23.365Z,62.81
2017-06-01T05:27:38.088Z,63
2017-06-01T05:28:53.554Z,62.62
2017-06-01T05:30:08.688Z,62.43
2017-06-01T05:31:23.412Z,62.14
2017-06-01T05:32:39.131Z,62.24
2017-06-01T05:33:54.573Z,61.47
2017-06-01T05:35:10.035Z,61.38
2017-06-01T05:36:25.848Z,62.04
2017-06-01T05:37:41.579Z,62.33
2017-06-01T05:38:56.974Z,62.24
2017-06-01T05:40:12.419Z,62.33
2017-06-01T05:41:28.102Z,62.24
2017-06-01T05:42:44.131Z,62.43
2017-06-01T05:43:59.545Z,62.24
2017-06-01T05:45:14.950Z,62.52
2017-06-01T05:46:30.454Z,62.33
2017-06-01T05:47:46.139Z,62.43
2017-06-01T05:49:00.100Z,61.88
2017-06-01T05:50:14.320Z,61.41
2017-06-01T05:51:30.002Z,61.51
2017-06-01T05:52:44.291Z,61.79
2017-06-01T05:53:59.839Z,61.31
2017-06-01T05:55:15.249Z,60.45
2017-06-01T05:56:30.646Z,60.16
2017-06-01T05:57:46.398Z,60.45
2017-06-01T05:59:01.870Z,60.16
2017-06-01T06:00:16.050Z,59.88
2017-06-01T06:01:31.436Z,60.16
2017-06-01T06:02:45.841Z,60.35
2017-06-01T06:04:00.219Z,59.78
2017-06-01T06:05:14.360Z,59.97
2017-06-01T06:06:29.484Z,59.91
2017-06-01T06:07:44.933Z,60.1
2017-06-01T06:08:59.272Z,60.1
2017-06-01T06:10:14.581Z,60
2017-06-01T06:11:30.015Z,60
2017-06-01T06:12:45.495Z,60.1
2017-06-01T06:14:01.227Z,59.43
2017-06-01T06:15:16.644Z,59.43
2017-06-01T06:16:32.091Z,59.23
2017-06-01T06:17:47.573Z,60
2017-06-01T06:19:03.262Z,60.19
2017-06-01T06:20:18.956Z,60
2017-06-01T06:21:33.149Z,60
2017-06-01T06:22:47.269Z,60
2017-06-01T06:24:00.154Z,59.23
2017-06-01T06:25:14.339Z,59.14
2017-06-01T06:26:29.421Z,58.86
2017-06-01T06:27:44.830Z,58.88
2017-06-01T06:29:00.466Z,59.17
2017-06-01T06:30:14.716Z,58.5
2017-06-01T06:31:30.109Z,58.12
2017-06-01T06:32:45.535Z,58.12
2017-06-01T06:34:01.185Z,57.92
2017-06-01T06:35:15.389Z,58.02
2017-06-01T06:36:30.911Z,58.12
2017-06-01T06:37:45.275Z,58.02
2017-06-01T06:39:00.926Z,58.02
2017-06-01T06:40:15.124Z,57.19
2017-06-01T06:41:30.492Z,57.83
2017-06-01T06:42:46.023Z,57.64
2017-06-01T06:44:00.153Z,57.64
2017-06-01T06:45:15.866Z,57.26
2017-06-01T06:46:31.283Z,57.16
2017-06-01T06:47:46.733Z,57.19
2017-06-01T06:49:02.120Z,56.97
2017-06-01T06:50:16.463Z,57.28
2017-06-01T06:51:31.912Z,57.09
2017-06-01T06:52:47.503Z,57.19
2017-06-01T06:54:01.909Z,57.28
2017-06-01T06:55:16.264Z,57.16
2017-06-01T06:56:30.463Z,56.97
2017-06-01T06:57:45.882Z,57.26
2017-06-01T06:58:59.982Z,57.35
2017-06-01T07:00:15.622Z,57.35
2017-06-01T07:01:31.038Z,57.54
2017-06-01T07:02:46.508Z,57.54
2017-06-01T07:04:00.603Z,58.02
2017-06-01T07:05:16.285Z,57.73
2017-06-01T07:06:30.442Z,57.57
2017-06-01T07:07:45.921Z,57.38
2017-06-01T07:09:01.400Z,57.09
2017-06-01T07:10:17.037Z,57.28
2017-06-01T07:11:32.489Z,57.38
2017-06-01T07:12:48.030Z,56.9
2017-06-01T07:14:03.440Z,57.48
2017-06-01T07:15:17.665Z,57.12
2017-06-01T07:16:33.133Z,56.93
2017-06-01T07:17:48.552Z,56.74
2017-06-01T07:19:04.015Z,56.35
2017-06-01T07:20:19.664Z,56.07
2017-06-01T07:21:32.327Z,56.07
2017-06-01T07:23:18.649Z,55.3
2017-06-01T07:24:32.925Z,55.11
2017-06-01T07:25:48.533Z,54.53
2017-06-01T07:27:03.991Z,55.01
2017-06-01T07:28:18.098Z,55.11
2017-06-01T07:29:33.967Z,54.89
2017-06-01T07:30:49.451Z,54.99
2017-06-01T07:32:03.592Z,55.18
2017-06-01T07:33:17.530Z,55.08
2017-06-01T07:34:31.890Z,54.7
2017-06-01T07:35:47.303Z,54.99
2017-06-01T07:37:02.810Z,54.7
2017-06-01T07:38:18.207Z,55.18
2017-06-01T07:39:31.011Z,55.18
2017-06-01T07:40:46.666Z,55.36
2017-06-01T07:42:02.145Z,55.27
2017-06-01T07:43:17.659Z,55.21
2017-06-01T07:44:31.899Z,54.53
2017-06-01T07:45:47.494Z,54.91
2017-06-01T07:47:03.013Z,54.72
2017-06-01T07:48:18.720Z,54.05
2017-06-01T07:49:34.734Z,54.24
2017-06-01T07:50:50.367Z,54.05
2017-06-01T07:52:05.791Z,54.44
2017-06-01T07:53:21.207Z,53.77
2017-06-01T07:54:35.305Z,54.05
2017-06-01T07:55:48.354Z,54.05
2017-06-01T07:57:02.555Z,53.38
2017-06-01T07:58:18.027Z,53.38
2017-06-01T07:59:33.480Z,53.58
2017-06-01T08:00:49.179Z,54.24
2017-06-01T08:02:03.560Z,54.05
2017-06-01T08:03:17.595Z,54.24
2017-06-01T08:04:33.005Z,53.77
2017-06-01T08:05:48.621Z,53.41
2017-06-01T08:07:02.726Z,52.64
2017-06-01T08:08:16.837Z,52.83
2017-06-01T08:09:32.286Z,53.5
2017-06-01T08:10:47.993Z,52.45
2017-06-01T08:12:03.419Z,51.87
2017-06-01T08:13:17.546Z,52.16
2017-06-01T08:14:32.981Z,52.64
2017-06-01T08:15:48.838Z,52.83
2017-06-01T08:17:04.521Z,52.36
2017-06-01T08:18:19.958Z,52.64
2017-06-01T08:19:35.672Z,52.38
2017-06-01T08:20:51.294Z,51.81
2017-06-01T08:22:06.787Z,51.42
2017-06-01T08:23:22.238Z,50.56
2017-06-01T08:24:37.707Z,51.04
2017-06-01T08:25:53.355Z,49.98
2017-06-01T08:27:08.807Z,50.1
2017-06-01T08:28:24.350Z,50.01
2017-06-01T08:29:38.615Z,49.52
2017-06-01T08:30:54.245Z,49.15
2017-06-01T08:32:09.714Z,49.24
2017-06-01T08:33:25.204Z,48.49
2017-06-01T08:34:40.631Z,48.59
2017-06-01T08:35:56.261Z,47.92
2017-06-01T08:37:09.275Z,47.05
2017-06-01T08:38:24.700Z,46.96
2017-06-01T08:39:38.827Z,46.48
2017-06-01T08:40:54.529Z,46.48
2017-06-01T08:42:09.973Z,46.41
2017-06-01T08:43:24.136Z,46.41
2017-06-01T08:44:39.677Z,46.21
2017-06-01T08:45:55.347Z,45.85
2017-06-01T08:47:10.769Z,45.47
2017-06-01T08:48:26.414Z,44.41
2017-06-01T08:49:41.935Z,43.49
2017-06-01T08:50:57.591Z,42.16
2017-06-01T08:52:13.102Z,41.8
2017-06-01T08:53:28.573Z,40.76
2017-06-01T08:54:44.394Z,41.19
2017-06-01T08:56:00.691Z,39.39
2017-06-01T08:57:16.146Z,37.77
2017-06-01T08:58:31.608Z,33.65
2017-06-01T08:59:47.293Z,35.02
2017-06-01T09:01:02.971Z,34.75
2017-06-01T09:02:18.326Z,32.36
2017-06-01T09:03:32.851Z,30.73
2017-06-01T09:04:48.322Z,29.57
2017-06-01T09:06:03.650Z,27.06
2017-06-01T09:07:19.075Z,29.76
2017-06-01T09:08:33.335Z,30.54
2017-06-01T09:09:46.168Z,31.32
2017-06-01T09:11:01.610Z,31.24
2017-06-01T09:12:13.221Z,30.08
2017-06-01T09:13:28.869Z,29.12
2017-06-01T09:14:44.337Z,29.71
2017-06-01T09:15:59.988Z,28.75
2017-06-01T09:17:15.689Z,28.18
2017-06-01T09:18:31.174Z,28.88
2017-06-01T09:19:46.634Z,28.02
2017-06-01T09:21:02.116Z,27.73
2017-06-01T09:22:17.382Z,26.58
2017-06-01T09:23:32.820Z,25.71
2017-06-01T09:24:46.997Z,24.45
2017-06-01T09:26:01.021Z,22.99
2017-06-01T09:27:16.719Z,23.77
2017-06-01T09:28:32.211Z,24.05
2017-06-01T09:29:47.630Z,23.07
2017-06-01T09:31:01.803Z,23.85
2017-06-01T09:32:17.415Z,23.66
2017-06-01T09:33:32.891Z,22.97
2017-06-01T09:34:47.492Z,23.84
2017-06-01T09:36:03.020Z,24.43
2017-06-01T09:37:18.958Z,24.72
2017-06-01T09:38:34.398Z,23.25
2017-06-01T09:39:49.802Z,23.65
2017-06-01T09:41:05.292Z,23.35
2017-06-01T09:42:18.415Z,22.19
2017-06-01T09:43:34.019Z,22.28
2017-06-01T09:44:48.012Z,22.86
2017-06-01T09:46:03.527Z,23.35
2017-06-01T09:47:19.191Z,24.32
2017-06-01T09:48:34.671Z,24.79
2017-06-01T09:49:50.191Z,25.09
2017-06-01T09:51:05.873Z,23.35
2017-06-01T09:52:20.216Z,22.67
2017-06-01T09:53:35.872Z,22.3
2017-06-01T09:54:50.406Z,21.43
2017-06-01T09:56:36.661Z,20.75
2017-06-01T09:57:52.320Z,21.51
2017-06-01T09:59:07.422Z,22.2
2017-06-01T10:00:22.904Z,21.42
2017-06-01T10:01:36.983Z,21.04
2017-06-01T10:02:52.639Z,20.93
2017-06-01T10:04:06.824Z,21.6
2017-06-01T10:05:22.354Z,22.28
2017-06-01T10:06:37.983Z,22.66
2017-06-01T10:07:52.457Z,20.91
2017-06-01T10:09:07.900Z,20.81
2017-06-01T10:10:23.399Z,21.4
2017-06-01T10:12:10.158Z,22.08
2017-06-01T10:13:24.604Z,21.98
2017-06-01T10:14:38.761Z,23.04
2017-06-01T10:15:54.309Z,23.73
2017-06-01T10:17:09.764Z,23.55
2017-06-01T10:18:25.469Z,23.85
2017-06-01T10:19:39.650Z,22.99
2017-06-01T10:20:55.126Z,22.31
2017-06-01T10:22:10.709Z,22.11
2017-06-01T10:23:26.432Z,21.14
2017-06-01T10:24:41.818Z,20.76
2017-06-01T10:25:57.334Z,21.14
2017-06-01T10:27:12.955Z,21.22
2017-06-01T10:28:28.661Z,21.32
2017-06-01T10:29:41.379Z,21.42
2017-06-01T10:30:56.822Z,21.14
2017-06-01T10:32:11.015Z,20.75
2017-06-01T10:33:26.660Z,21.23
2017-06-01T10:34:42.136Z,21.15
2017-06-01T10:35:57.634Z,20.27
2017-06-01T10:37:13.144Z,19.68
2017-06-01T10:38:29.007Z,19.96
2017-06-01T10:39:44.504Z,19.98
2017-06-01T10:41:00.260Z,19.96
2017-06-01T10:42:14.413Z,19.29
2017-06-01T10:43:28.611Z,18.62
2017-06-01T10:44:44.529Z,17.93
2017-06-01T10:46:00.088Z,18.52
2017-06-01T10:47:15.576Z,19.48
2017-06-01T10:48:31.078Z,19.96
2017-06-01T10:49:46.893Z,19.67
2017-06-01T10:50:59.873Z,19.47
2017-06-01T10:52:15.325Z,19.76
2017-06-01T10:53:30.823Z,20.35
2017-06-01T10:54:46.472Z,18.21
2017-06-01T10:56:02.247Z,17.43
2017-06-01T10:57:17.672Z,17.91
2017-06-01T10:58:33.174Z,18.21
2017-06-01T10:59:48.869Z,18.5
2017-06-01T11:01:04.403Z,18.41
2017-06-01T11:02:18.691Z,18.02
2017-06-01T11:03:34.104Z,16.96
2017-06-01T11:04:49.827Z,16.95
2017-06-01T11:06:05.252Z,17.23
2017-06-01T11:07:20.752Z,18.78
2017-06-01T11:08:36.227Z,18.96
2017-06-01T11:09:49.159Z,19.84
2017-06-01T11:11:04.745Z,20.23
2017-06-01T11:12:19.013Z,20.14
2017-06-01T11:13:34.796Z,19.74
2017-06-01T11:14:50.483Z,17.12
2017-06-01T11:16:05.928Z,17.7
2017-06-01T11:17:21.726Z,17.99
2017-06-01T11:18:35.862Z,18.48
2017-06-01T11:19:51.592Z,18.29
2017-06-01T11:21:07.101Z,17.22
2017-06-01T11:22:22.563Z,18
2017-06-01T11:23:38.116Z,18.87
2017-06-01T11:24:53.801Z,18.87
2017-06-01T11:26:07.985Z,19.26
2017-06-01T11:27:22.061Z,18.49
2017-06-01T11:28:37.534Z,18.3
2017-06-01T11:29:53.293Z,18.3
2017-06-01T11:31:08.709Z,18.41
2017-06-01T11:32:22.945Z,18.21
2017-06-01T11:33:38.048Z,17.44
2017-06-01T11:34:53.946Z,17.92
2017-06-01T11:36:08.089Z,17.92
2017-06-01T11:37:23.585Z,16.56
2017-06-01T11:38:37.735Z,16.36
2017-06-01T11:39:53.613Z,16.36
2017-06-01T11:41:09.093Z,16.17
2017-06-01T11:42:24.637Z,15.09
2017-06-01T11:43:40.066Z,15.58
2017-06-01T11:44:55.689Z,16.06
2017-06-01T11:46:11.126Z,15.88
2017-06-01T11:47:25.287Z,15.88
2017-06-01T11:48:39.477Z,15.09
2017-06-01T11:49:55.345Z,14.71
2017-06-01T11:51:11.427Z,15
2017-06-01T11:52:26.887Z,14.22
2017-06-01T11:53:41.187Z,14.51
2017-06-01T11:54:56.694Z,14.6
2017-06-01T11:56:12.414Z,15.19
2017-06-01T11:57:26.876Z,14.99
2017-06-01T11:58:43.778Z,14.99
2017-06-01T11:59:58.596Z,15.28
2017-06-01T12:01:14.291Z,15.39
2017-06-01T12:02:29.785Z,14.81
2017-06-01T12:03:45.266Z,14.41
2017-06-01T12:05:00.782Z,15.19
2017-06-01T12:06:16.480Z,15.58
2017-06-01T12:07:31.883Z,16.55
2017-06-01T12:08:47.389Z,16.46
2017-06-01T12:10:02.855Z,16.84
2017-06-01T12:11:17.226Z,16.36
2017-06-01T12:12:32.718Z,15.67
2017-06-01T12:13:46.923Z,14.7
2017-06-01T12:15:02.440Z,14.41
2017-06-01T12:16:18.138Z,14.79
2017-06-01T12:17:33.809Z,15.08
2017-06-01T12:18:49.286Z,16.04
2017-06-01T12:20:04.950Z,16.04
2017-06-01T12:21:20.679Z,16.52
2017-06-01T12:22:36.189Z,16.42
2017-06-01T12:23:51.663Z,17
2017-06-01T12:25:07.333Z,16.91
2017-06-01T12:26:23.090Z,16.32
2017-06-01T12:27:38.180Z,17.2
2017-06-01T12:28:53.714Z,18.26
2017-06-01T12:30:08.855Z,18.26
2017-06-01T12:31:22.220Z,18.74
2017-06-01T12:32:37.712Z,18.26
2017-06-01T12:33:51.903Z,18.94
2017-06-01T12:35:07.396Z,19.62
2017-06-01T12:36:23.060Z,19.04
2017-06-01T12:37:38.576Z,18.84
2017-06-01T12:38:52.856Z,19.42
2017-06-01T12:40:08.286Z,19.71
2017-06-01T12:41:24.019Z,19.81
2017-06-01T12:42:39.982Z,19.13
2017-06-01T12:43:52.568Z,19.51
2017-06-01T12:45:08.163Z,19.51
2017-06-01T12:46:23.635Z,19.42
2017-06-01T12:47:39.122Z,19.12
2017-06-01T12:48:53.415Z,19.22
2017-06-01T12:50:09.137Z,18.83
2017-06-01T12:51:24.574Z,19.12
2017-06-01T12:52:40.106Z,19.02
2017-06-01T12:53:55.540Z,18.73
2017-06-01T12:55:11.052Z,18.44
2017-06-01T12:56:26.500Z,18.15
2017-06-01T12:57:42.175Z,17.56
2017-06-01T12:59:28.459Z,18.15
2017-06-01T13:00:43.968Z,18.33
2017-06-01T13:01:59.469Z,19.2
2017-06-01T13:03:14.934Z,19.88
2017-06-01T13:04:30.406Z,19.98
2017-06-01T13:05:45.911Z,19.98
2017-06-01T13:07:01.417Z,19.59
2017-06-01T13:08:16.116Z,19.78
2017-06-01T13:09:31.567Z,19.96
2017-06-01T13:10:45.731Z,20.06
2017-06-01T13:12:01.210Z,19.78
2017-06-01T13:13:16.705Z,19.68
2017-06-01T13:14:32.232Z,18.9
2017-06-01T13:15:47.698Z,19.19
2017-06-01T13:17:03.440Z,18.8
2017-06-01T13:18:17.540Z,17.93
2017-06-01T13:19:33.385Z,17.74
2017-06-01T13:20:48.874Z,18.51
2017-06-01T13:22:04.448Z,18.9
2017-06-01T13:23:19.889Z,19.29
2017-06-01T13:24:34.075Z,19.19
2017-06-01T13:25:49.562Z,18.03
2017-06-01T13:27:05.141Z,18.51
2017-06-01T13:28:19.356Z,17.06
2017-06-01T13:29:34.891Z,17.16
2017-06-01T13:30:50.398Z,17.25
2017-06-01T13:32:05.964Z,18.41
2017-06-01T13:33:21.777Z,19.09
2017-06-01T13:34:35.772Z,19.67
2017-06-01T13:35:51.314Z,20.64
2017-06-01T13:37:06.824Z,20.44
2017-06-01T13:38:22.549Z,19.47
2017-06-01T13:39:36.706Z,19.86
2017-06-01T13:40:52.195Z,19.96
2017-06-01T13:42:06.362Z,20.44
2017-06-01T13:43:21.808Z,20.15
2017-06-01T13:45:08.246Z,19.28
2017-06-01T13:46:24.348Z,18.41
2017-06-01T13:47:38.625Z,18.21
2017-06-01T13:48:54.037Z,18.21
2017-06-01T13:50:07.859Z,17.74
2017-06-01T13:51:22.065Z,18.03
2017-06-01T13:52:36.198Z,18.51
2017-06-01T13:53:51.666Z,18.41
2017-06-01T13:55:05.873Z,18.8
2017-06-01T13:56:21.288Z,18.6
2017-06-01T13:57:36.748Z,18.41
2017-06-01T13:58:52.469Z,19.18
2017-06-01T14:00:07.887Z,19.09
2017-06-01T14:01:22.053Z,18.79
2017-06-01T14:02:37.600Z,19.09
2017-06-01T14:03:53.105Z,18.02
2017-06-01T14:05:08.550Z,18.41
2017-06-01T14:06:22.778Z,18.41
2017-06-01T14:07:37.228Z,18.21
2017-06-01T14:08:52.734Z,18.31
2017-06-01T14:10:08.258Z,18.51
2017-06-01T14:11:23.381Z,18.89
2017-06-01T14:12:39.089Z,18.89
2017-06-01T14:13:53.224Z,18.51
2017-06-01T14:15:08.970Z,18.6
2017-06-01T14:16:24.532Z,18.02
2017-06-01T14:17:40.224Z,18.51
2017-06-01T14:18:55.913Z,18.41
2017-06-01T14:20:11.443Z,18.41
2017-06-01T14:21:26.997Z,18.41
2017-06-01T14:22:42.679Z,18.02
2017-06-01T14:23:58.159Z,18.41
2017-06-01T14:25:14.258Z,18.02
2017-06-01T14:26:30.037Z,17.92
2017-06-01T14:27:46.008Z,17.83
2017-06-01T14:29:01.501Z,18.41
2017-06-01T14:30:16.997Z,18.41
2017-06-01T14:31:33.082Z,16.28
2017-06-01T14:32:48.875Z,15.99
2017-06-01T14:34:04.363Z,16.37
2017-06-01T14:35:19.924Z,16.85
2017-06-01T14:36:35.741Z,17.04
2017-06-01T14:37:50.124Z,16.75
2017-06-01T14:39:04.375Z,16.94
2017-06-01T14:40:19.890Z,17.33
2017-06-01T14:41:35.382Z,17.63
2017-06-01T14:42:51.035Z,17.04
2017-06-01T14:44:37.451Z,17.24
2017-06-01T14:45:52.863Z,16.96
2017-06-01T14:47:08.834Z,17.73
2017-06-01T14:48:24.281Z,17.14
2017-06-01T14:49:38.443Z,17.05
2017-06-01T14:50:53.872Z,16.96
2017-06-01T14:52:09.483Z,16.47
2017-06-01T14:53:24.961Z,16.75
2017-06-01T14:54:39.168Z,17.24
2017-06-01T14:55:51.913Z,16.27
2017-06-01T14:57:07.609Z,16.27
2017-06-01T14:58:23.058Z,16.46
2017-06-01T14:59:38.488Z,15.49
2017-06-01T15:00:53.955Z,16.18
2017-06-01T15:02:09.726Z,17.14
2017-06-01T15:03:25.349Z,16.28
2017-06-01T15:04:40.803Z,16.27
2017-06-01T15:05:54.654Z,15.88
2017-06-01T15:07:10.870Z,16.36
2017-06-01T15:08:26.351Z,16.36
2017-06-01T15:09:41.767Z,16.17
2017-06-01T15:10:57.177Z,15.21
2017-06-01T15:12:13.214Z,15.11
2017-06-01T15:13:28.739Z,15.98
2017-06-01T15:14:42.799Z,16.27
2017-06-01T15:15:58.239Z,16.36
2017-06-01T15:17:13.910Z,16.36
2017-06-01T15:18:29.433Z,16.36
2017-06-01T15:19:43.245Z,16.66
2017-06-01T15:20:57.608Z,16.56
2017-06-01T15:22:13.097Z,16.75
2017-06-01T15:23:28.944Z,16.85
2017-06-01T15:24:44.407Z,17.33
2017-06-01T15:25:59.990Z,17.52
2017-06-01T15:27:15.544Z,17.82
2017-06-01T15:28:31.364Z,17.04
2017-06-01T15:29:46.821Z,17.14
2017-06-01T15:31:00.988Z,17.62
2017-06-01T15:32:16.493Z,16.17
2017-06-01T15:33:32.170Z,16.46
2017-06-01T15:34:47.666Z,17.04
2017-06-01T15:36:03.169Z,16.85
2017-06-01T15:37:18.868Z,17.14
2017-06-01T15:38:34.836Z,16.07
2017-06-01T15:39:50.552Z,15.88
2017-06-01T15:41:05.988Z,15.3
2017-06-01T15:42:21.579Z,14.62
2017-06-01T15:43:37.351Z,14.23
2017-06-01T15:44:52.783Z,14.53
2017-06-01T15:46:06.884Z,14.61
2017-06-01T15:47:21.032Z,15.01
2017-06-01T15:48:37.121Z,15.68
2017-06-01T15:49:52.624Z,15.58
2017-06-01T15:51:08.052Z,15.98
2017-06-01T15:52:23.475Z,16.17
2017-06-01T15:53:39.148Z,15.49
2017-06-01T15:54:53.294Z,15.59
2017-06-01T15:56:08.788Z,15.59
2017-06-01T15:57:24.290Z,15.98
2017-06-01T15:58:40.048Z,16.07
2017-06-01T15:59:55.508Z,16.36
2017-06-01T16:01:09.648Z,16.27
2017-06-01T16:02:25.115Z,16.66
2017-06-01T16:03:41.026Z,17.04
2017-06-01T16:04:56.814Z,17.43
2017-06-01T16:06:12.245Z,17.82
2017-06-01T16:07:27.699Z,17.82
2017-06-01T16:08:43.535Z,18.3
2017-06-01T16:09:59.003Z,18.3
2017-06-01T16:11:13.050Z,18.59
2017-06-01T16:12:28.187Z,18.11
2017-06-01T16:13:44.365Z,18.4
2017-06-01T16:14:59.978Z,18.79
2017-06-01T16:16:14.099Z,19.07